sensor_id;sensor_type;location;lat;lon;timestamp;pressure;altitude;pressure_sealevel;temperature;humidity
17260;BME280;8746;49.230;9.220;2023-07-22T00:00:07;99803.47;;;15.21;97.12
17260;BME280;8746;49.230;9.220;2023-07-22T00:02:36;99807.28;;;15.17;96.99
17260;BME280;8746;49.230;9.220;2023-07-22T00:05:04;99801.94;;;15.17;97.33
17260;BME280;8746;49.230;9.220;2023-07-22T00:07:29;99799.41;;;15.16;97.62
17260;BME280;8746;49.230;9.220;2023-07-22T00:09:54;99800.91;;;15.20;97.70
17260;BME280;8746;49.230;9.220;2023-07-22T00:12:20;99798.81;;;15.25;97.67
17260;BME280;8746;49.230;9.220;2023-07-22T00:14:45;99792.84;;;15.21;97.27
17260;BME280;8746;49.230;9.220;2023-07-22T00:17:10;99791.31;;;15.17;97.40
17260;BME280;8746;49.230;9.220;2023-07-22T00:19:36;99798.72;;;15.12;96.98
17260;BME280;8746;49.230;9.220;2023-07-22T00:22:01;99791.31;;;15.03;97.67
17260;BME280;8746;49.230;9.220;2023-07-22T00:24:27;99794.44;;;14.95;98.70
17260;BME280;8746;49.230;9.220;2023-07-22T00:26:52;99798.31;;;14.89;98.74
17260;BME280;8746;49.230;9.220;2023-07-22T00:29:17;99804.00;;;14.83;98.89
17260;BME280;8746;49.230;9.220;2023-07-22T00:31:43;99796.03;;;14.83;99.01
17260;BME280;8746;49.230;9.220;2023-07-22T00:34:09;99794.28;;;14.68;100.00
17260;BME280;8746;49.230;9.220;2023-07-22T00:36:34;99809.03;;;14.57;100.00
17260;BME280;8746;49.230;9.220;2023-07-22T00:38:59;99802.47;;;14.49;100.00
17260;BME280;8746;49.230;9.220;2023-07-22T00:41:26;99808.72;;;14.48;100.00
17260;BME280;8746;49.230;9.220;2023-07-22T00:43:52;99800.66;;;14.49;100.00
17260;BME280;8746;49.230;9.220;2023-07-22T00:46:17;99801.81;;;14.45;100.00
17260;BME280;8746;49.230;9.220;2023-07-22T00:48:43;99803.53;;;14.46;100.00
17260;BME280;8746;49.230;9.220;2023-07-22T00:51:08;99798.22;;;14.46;100.00
17260;BME280;8746;49.230;9.220;2023-07-22T00:53:33;99804.16;;;14.35;100.00
17260;BME280;8746;49.230;9.220;2023-07-22T00:55:59;99795.91;;;14.40;100.00
17260;BME280;8746;49.230;9.220;2023-07-22T00:58:24;99800.25;;;14.41;100.00
17260;BME280;8746;49.230;9.220;2023-07-22T01:00:49;99795.03;;;14.39;100.00
17260;BME280;8746;49.230;9.220;2023-07-22T01:03:14;99797.03;;;14.36;100.00
17260;BME280;8746;49.230;9.220;2023-07-22T01:05:40;99795.50;;;14.32;100.00
17260;BME280;8746;49.230;9.220;2023-07-22T01:08:06;99795.41;;;14.33;100.00
17260;BME280;8746;49.230;9.220;2023-07-22T01:10:32;99797.66;;;14.25;100.00
17260;BME280;8746;49.230;9.220;2023-07-22T01:12:57;99799.72;;;14.20;100.00
17260;BME280;8746;49.230;9.220;2023-07-22T01:15:24;99800.75;;;14.17;100.00
17260;BME280;8746;49.230;9.220;2023-07-22T01:17:50;99794.94;;;14.10;100.00
17260;BME280;8746;49.230;9.220;2023-07-22T01:20:16;99789.97;;;14.04;100.00
17260;BME280;8746;49.230;9.220;2023-07-22T01:22:53;99785.81;;;14.00;100.00
17260;BME280;8746;49.230;9.220;2023-07-22T01:25:22;99794.78;;;13.98;100.00
17260;BME280;8746;49.230;9.220;2023-07-22T01:27:49;99797.94;;;14.04;100.00
17260;BME280;8746;49.230;9.220;2023-07-22T01:30:15;99791.75;;;14.20;100.00
17260;BME280;8746;49.230;9.220;2023-07-22T01:32:40;99802.09;;;14.24;100.00
17260;BME280;8746;49.230;9.220;2023-07-22T01:35:06;99799.34;;;14.26;100.00
17260;BME280;8746;49.230;9.220;2023-07-22T01:37:35;99800.22;;;14.26;100.00
17260;BME280;8746;49.230;9.220;2023-07-22T01:40:01;99797.28;;;14.31;100.00
17260;BME280;8746;49.230;9.220;2023-07-22T01:42:31;99788.38;;;14.32;100.00
17260;BME280;8746;49.230;9.220;2023-07-22T01:44:56;99790.94;;;14.34;100.00
17260;BME280;8746;49.230;9.220;2023-07-22T01:47:21;99791.81;;;14.34;100.00
17260;BME280;8746;49.230;9.220;2023-07-22T01:49:47;99787.66;;;14.30;100.00
17260;BME280;8746;49.230;9.220;2023-07-22T01:52:12;99788.75;;;14.26;100.00
17260;BME280;8746;49.230;9.220;2023-07-22T01:54:38;99787.13;;;14.23;100.00
17260;BME280;8746;49.230;9.220;2023-07-22T01:57:03;99789.78;;;14.23;100.00
17260;BME280;8746;49.230;9.220;2023-07-22T01:59:28;99790.63;;;14.24;100.00
17260;BME280;8746;49.230;9.220;2023-07-22T02:01:54;99782.75;;;14.22;100.00
17260;BME280;8746;49.230;9.220;2023-07-22T02:04:19;99787.91;;;14.25;100.00
17260;BME280;8746;49.230;9.220;2023-07-22T02:06:46;99787.72;;;14.29;100.00
17260;BME280;8746;49.230;9.220;2023-07-22T02:09:11;99790.97;;;14.18;100.00
17260;BME280;8746;49.230;9.220;2023-07-22T02:11:39;99786.34;;;14.21;100.00
17260;BME280;8746;49.230;9.220;2023-07-22T02:14:04;99784.25;;;14.12;100.00
17260;BME280;8746;49.230;9.220;2023-07-22T02:16:35;99787.09;;;13.93;100.00
17260;BME280;8746;49.230;9.220;2023-07-22T02:19:02;99785.97;;;13.81;100.00
17260;BME280;8746;49.230;9.220;2023-07-22T02:21:28;99790.31;;;13.98;100.00
17260;BME280;8746;49.230;9.220;2023-07-22T02:23:53;99797.88;;;13.90;100.00
17260;BME280;8746;49.230;9.220;2023-07-22T02:26:18;99808.81;;;14.00;100.00
17260;BME280;8746;49.230;9.220;2023-07-22T02:28:44;99805.88;;;14.04;100.00
17260;BME280;8746;49.230;9.220;2023-07-22T02:31:09;99807.22;;;13.97;100.00
17260;BME280;8746;49.230;9.220;2023-07-22T02:33:35;99806.91;;;14.02;100.00
17260;BME280;8746;49.230;9.220;2023-07-22T02:36:01;99803.34;;;14.03;100.00
17260;BME280;8746;49.230;9.220;2023-07-22T02:38:26;99795.28;;;13.88;100.00
17260;BME280;8746;49.230;9.220;2023-07-22T02:40:52;99791.97;;;13.85;100.00
17260;BME280;8746;49.230;9.220;2023-07-22T02:43:17;99796.66;;;13.95;100.00
17260;BME280;8746;49.230;9.220;2023-07-22T02:45:42;99787.59;;;14.00;100.00
17260;BME280;8746;49.230;9.220;2023-07-22T02:48:09;99796.50;;;13.99;100.00
17260;BME280;8746;49.230;9.220;2023-07-22T02:50:34;99789.47;;;13.98;100.00
17260;BME280;8746;49.230;9.220;2023-07-22T02:52:59;99786.94;;;13.96;100.00
17260;BME280;8746;49.230;9.220;2023-07-22T02:55:25;99782.66;;;13.93;100.00
17260;BME280;8746;49.230;9.220;2023-07-22T02:57:51;99785.22;;;13.95;100.00
17260;BME280;8746;49.230;9.220;2023-07-22T03:00:19;99784.19;;;13.98;100.00
17260;BME280;8746;49.230;9.220;2023-07-22T03:02:54;99785.03;;;13.98;100.00
17260;BME280;8746;49.230;9.220;2023-07-22T03:05:29;99783.66;;;13.91;100.00
17260;BME280;8746;49.230;9.220;2023-07-22T03:07:55;99777.50;;;13.90;100.00
17260;BME280;8746;49.230;9.220;2023-07-22T03:10:21;99781.09;;;13.89;100.00
17260;BME280;8746;49.230;9.220;2023-07-22T03:12:47;99794.63;;;13.85;100.00
17260;BME280;8746;49.230;9.220;2023-07-22T03:15:12;99796.53;;;13.83;100.00
17260;BME280;8746;49.230;9.220;2023-07-22T03:17:39;99798.91;;;13.87;100.00
17260;BME280;8746;49.230;9.220;2023-07-22T03:20:07;99782.13;;;13.87;100.00
17260;BME280;8746;49.230;9.220;2023-07-22T03:22:42;99780.50;;;13.84;100.00
17260;BME280;8746;49.230;9.220;2023-07-22T03:25:11;99788.56;;;13.83;100.00
17260;BME280;8746;49.230;9.220;2023-07-22T03:27:37;99792.25;;;13.80;100.00
17260;BME280;8746;49.230;9.220;2023-07-22T03:30:04;99797.34;;;13.83;100.00
17260;BME280;8746;49.230;9.220;2023-07-22T03:32:33;99794.13;;;13.78;100.00
17260;BME280;8746;49.230;9.220;2023-07-22T03:34:58;99796.69;;;13.63;100.00
17260;BME280;8746;49.230;9.220;2023-07-22T03:37:23;99789.59;;;13.64;100.00
17260;BME280;8746;49.230;9.220;2023-07-22T03:39:49;99795.91;;;13.61;100.00
17260;BME280;8746;49.230;9.220;2023-07-22T03:42:15;99794.63;;;13.69;100.00
17260;BME280;8746;49.230;9.220;2023-07-22T03:44:41;99797.28;;;13.69;100.00
17260;BME280;8746;49.230;9.220;2023-07-22T03:47:06;99793.09;;;13.65;100.00
17260;BME280;8746;49.230;9.220;2023-07-22T03:49:31;99791.13;;;13.68;100.00
17260;BME280;8746;49.230;9.220;2023-07-22T03:51:57;99796.34;;;13.70;100.00
17260;BME280;8746;49.230;9.220;2023-07-22T03:54:22;99796.94;;;13.75;100.00
17260;BME280;8746;49.230;9.220;2023-07-22T03:56:47;99803.94;;;13.76;100.00
17260;BME280;8746;49.230;9.220;2023-07-22T03:59:12;99807.19;;;13.81;100.00
17260;BME280;8746;49.230;9.220;2023-07-22T04:01:38;99805.66;;;13.77;100.00
17260;BME280;8746;49.230;9.220;2023-07-22T04:04:03;99816.84;;;13.82;100.00
17260;BME280;8746;49.230;9.220;2023-07-22T04:06:29;99822.00;;;13.85;100.00
17260;BME280;8746;49.230;9.220;2023-07-22T04:08:54;99821.91;;;13.87;100.00
17260;BME280;8746;49.230;9.220;2023-07-22T04:11:19;99819.16;;;13.88;100.00
17260;BME280;8746;49.230;9.220;2023-07-22T04:13:44;99820.97;;;13.88;100.00
17260;BME280;8746;49.230;9.220;2023-07-22T04:16:10;99818.22;;;13.89;100.00
17260;BME280;8746;49.230;9.220;2023-07-22T04:18:35;99811.22;;;13.88;100.00
17260;BME280;8746;49.230;9.220;2023-07-22T04:21:00;99817.53;;;13.86;100.00
17260;BME280;8746;49.230;9.220;2023-07-22T04:23:26;99809.19;;;13.93;100.00
17260;BME280;8746;49.230;9.220;2023-07-22T04:25:52;99810.03;;;13.94;100.00
17260;BME280;8746;49.230;9.220;2023-07-22T04:28:17;99807.63;;;13.89;100.00
17260;BME280;8746;49.230;9.220;2023-07-22T04:30:43;99807.47;;;13.92;100.00
17260;BME280;8746;49.230;9.220;2023-07-22T04:33:08;99816.09;;;13.80;100.00
17260;BME280;8746;49.230;9.220;2023-07-22T04:35:40;99818.66;;;13.82;100.00
17260;BME280;8746;49.230;9.220;2023-07-22T04:38:06;99821.31;;;13.66;100.00
17260;BME280;8746;49.230;9.220;2023-07-22T04:40:32;99829.34;;;13.64;100.00
17260;BME280;8746;49.230;9.220;2023-07-22T04:42:57;99825.53;;;13.36;100.00
17260;BME280;8746;49.230;9.220;2023-07-22T04:45:23;99816.44;;;13.24;100.00
17260;BME280;8746;49.230;9.220;2023-07-22T04:47:51;99815.47;;;13.43;100.00
17260;BME280;8746;49.230;9.220;2023-07-22T04:50:17;99806.59;;;13.60;100.00
17260;BME280;8746;49.230;9.220;2023-07-22T04:52:45;99805.66;;;13.77;100.00
17260;BME280;8746;49.230;9.220;2023-07-22T04:55:11;99811.84;;;13.93;100.00
17260;BME280;8746;49.230;9.220;2023-07-22T04:57:41;99804.03;;;13.90;100.00
17260;BME280;8746;49.230;9.220;2023-07-22T05:00:10;99812.91;;;14.05;100.00
17260;BME280;8746;49.230;9.220;2023-07-22T05:02:41;99819.84;;;13.76;100.00
17260;BME280;8746;49.230;9.220;2023-07-22T05:05:08;99823.19;;;13.95;100.00
17260;BME280;8746;49.230;9.220;2023-07-22T05:07:34;99815.72;;;14.18;100.00
17260;BME280;8746;49.230;9.220;2023-07-22T05:10:00;99819.81;;;14.24;100.00
17260;BME280;8746;49.230;9.220;2023-07-22T05:12:25;99815.97;;;14.30;100.00
17260;BME280;8746;49.230;9.220;2023-07-22T05:14:50;99817.47;;;14.34;100.00
17260;BME280;8746;49.230;9.220;2023-07-22T05:17:16;99820.06;;;14.35;100.00
17260;BME280;8746;49.230;9.220;2023-07-22T05:19:41;99831.16;;;14.42;100.00
17260;BME280;8746;49.230;9.220;2023-07-22T05:22:07;99831.06;;;14.43;100.00
17260;BME280;8746;49.230;9.220;2023-07-22T05:24:32;99837.00;;;14.49;100.00
17260;BME280;8746;49.230;9.220;2023-07-22T05:26:58;99836.53;;;14.56;100.00
17260;BME280;8746;49.230;9.220;2023-07-22T05:29:24;99840.69;;;14.61;100.00
17260;BME280;8746;49.230;9.220;2023-07-22T05:31:49;99837.66;;;14.52;100.00
17260;BME280;8746;49.230;9.220;2023-07-22T05:34:14;99840.22;;;14.54;100.00
17260;BME280;8746;49.230;9.220;2023-07-22T05:36:39;99841.75;;;14.58;100.00
17260;BME280;8746;49.230;9.220;2023-07-22T05:39:05;99839.97;;;14.58;100.00
17260;BME280;8746;49.230;9.220;2023-07-22T05:41:32;99846.78;;;14.63;100.00
17260;BME280;8746;49.230;9.220;2023-07-22T05:43:58;99843.81;;;14.69;100.00
17260;BME280;8746;49.230;9.220;2023-07-22T05:46:23;99841.38;;;14.64;100.00
17260;BME280;8746;49.230;9.220;2023-07-22T05:48:48;99838.53;;;14.83;100.00
17260;BME280;8746;49.230;9.220;2023-07-22T05:51:14;99843.28;;;14.78;100.00
17260;BME280;8746;49.230;9.220;2023-07-22T05:53:40;99842.19;;;14.66;100.00
17260;BME280;8746;49.230;9.220;2023-07-22T05:56:05;99849.53;;;14.77;100.00
17260;BME280;8746;49.230;9.220;2023-07-22T05:58:31;99847.75;;;14.92;100.00
17260;BME280;8746;49.230;9.220;2023-07-22T06:00:56;99845.22;;;15.05;100.00
17260;BME280;8746;49.230;9.220;2023-07-22T06:03:22;99842.75;;;15.16;100.00
17260;BME280;8746;49.230;9.220;2023-07-22T06:05:47;99857.19;;;15.27;100.00
17260;BME280;8746;49.230;9.220;2023-07-22T06:08:13;99850.53;;;15.34;100.00
17260;BME280;8746;49.230;9.220;2023-07-22T06:10:40;99841.25;;;15.41;100.00
17260;BME280;8746;49.230;9.220;2023-07-22T06:13:05;99845.03;;;15.37;100.00
17260;BME280;8746;49.230;9.220;2023-07-22T06:15:31;99841.06;;;15.44;100.00
17260;BME280;8746;49.230;9.220;2023-07-22T06:17:56;99853.56;;;15.28;100.00
17260;BME280;8746;49.230;9.220;2023-07-22T06:20:21;99853.41;;;15.45;100.00
17260;BME280;8746;49.230;9.220;2023-07-22T06:22:47;99859.06;;;15.68;99.68
17260;BME280;8746;49.230;9.220;2023-07-22T06:25:12;99855.28;;;15.72;98.21
17260;BME280;8746;49.230;9.220;2023-07-22T06:27:38;99862.50;;;15.70;97.57
17260;BME280;8746;49.230;9.220;2023-07-22T06:30:04;99857.91;;;16.01;96.57
17260;BME280;8746;49.230;9.220;2023-07-22T06:32:29;99858.13;;;16.25;94.71
17260;BME280;8746;49.230;9.220;2023-07-22T06:34:56;99849.81;;;16.02;92.32
17260;BME280;8746;49.230;9.220;2023-07-22T06:37:22;99855.31;;;16.41;92.44
17260;BME280;8746;49.230;9.220;2023-07-22T06:39:47;99860.13;;;16.49;90.76
17260;BME280;8746;49.230;9.220;2023-07-22T06:42:13;99851.22;;;16.63;91.21
17260;BME280;8746;49.230;9.220;2023-07-22T06:44:38;99858.81;;;16.82;91.17
17260;BME280;8746;49.230;9.220;2023-07-22T06:47:03;99853.22;;;17.12;89.70
17260;BME280;8746;49.230;9.220;2023-07-22T06:49:29;99853.38;;;17.24;88.91
17260;BME280;8746;49.230;9.220;2023-07-22T06:51:54;99858.34;;;17.28;86.27
17260;BME280;8746;49.230;9.220;2023-07-22T06:54:19;99857.59;;;17.39;85.96
17260;BME280;8746;49.230;9.220;2023-07-22T06:56:45;99847.84;;;17.64;85.70
17260;BME280;8746;49.230;9.220;2023-07-22T06:59:10;99852.69;;;17.33;86.28
17260;BME280;8746;49.230;9.220;2023-07-22T07:01:35;99859.53;;;17.11;86.48
17260;BME280;8746;49.230;9.220;2023-07-22T07:04:00;99865.34;;;16.91;85.88
17260;BME280;8746;49.230;9.220;2023-07-22T07:06:27;99859.00;;;17.32;85.99
17260;BME280;8746;49.230;9.220;2023-07-22T07:08:53;99862.50;;;17.45;85.12
17260;BME280;8746;49.230;9.220;2023-07-22T07:11:18;99863.25;;;17.60;86.00
17260;BME280;8746;49.230;9.220;2023-07-22T07:13:43;99863.44;;;17.70;85.13
17260;BME280;8746;49.230;9.220;2023-07-22T07:16:31;99864.50;;;17.81;83.64
17260;BME280;8746;49.230;9.220;2023-07-22T07:18:57;99866.59;;;18.01;84.79
17260;BME280;8746;49.230;9.220;2023-07-22T07:21:23;99866.66;;;18.13;82.47
17260;BME280;8746;49.230;9.220;2023-07-22T07:23:51;99869.41;;;18.00;82.32
17260;BME280;8746;49.230;9.220;2023-07-22T07:26:16;99868.03;;;18.18;79.39
17260;BME280;8746;49.230;9.220;2023-07-22T07:28:42;99873.41;;;18.05;79.92
17260;BME280;8746;49.230;9.220;2023-07-22T07:31:07;99871.84;;;18.27;79.24
17260;BME280;8746;49.230;9.220;2023-07-22T07:33:33;99868.44;;;18.25;79.95
17260;BME280;8746;49.230;9.220;2023-07-22T07:35:58;99871.69;;;18.41;78.59
17260;BME280;8746;49.230;9.220;2023-07-22T07:38:24;99864.38;;;18.68;78.84
17260;BME280;8746;49.230;9.220;2023-07-22T07:40:57;99868.31;;;18.86;76.93
17260;BME280;8746;49.230;9.220;2023-07-22T07:43:23;99858.97;;;18.81;76.52
17260;BME280;8746;49.230;9.220;2023-07-22T07:45:49;99865.75;;;19.09;76.47
17260;BME280;8746;49.230;9.220;2023-07-22T07:48:16;99871.34;;;19.17;75.66
17260;BME280;8746;49.230;9.220;2023-07-22T07:50:41;99868.81;;;19.16;75.26
17260;BME280;8746;49.230;9.220;2023-07-22T07:53:07;99869.56;;;18.58;75.44
17260;BME280;8746;49.230;9.220;2023-07-22T07:55:32;99864.44;;;18.79;76.23
17260;BME280;8746;49.230;9.220;2023-07-22T07:57:57;99869.25;;;19.10;75.36
17260;BME280;8746;49.230;9.220;2023-07-22T08:00:23;99862.38;;;19.30;73.64
17260;BME280;8746;49.230;9.220;2023-07-22T08:02:48;99869.81;;;19.49;73.38
17260;BME280;8746;49.230;9.220;2023-07-22T08:05:13;99866.41;;;19.47;74.03
17260;BME280;8746;49.230;9.220;2023-07-22T08:07:39;99856.91;;;19.54;72.53
17260;BME280;8746;49.230;9.220;2023-07-22T08:10:06;99865.31;;;19.49;71.79
17260;BME280;8746;49.230;9.220;2023-07-22T08:12:32;99862.75;;;19.70;71.68
17260;BME280;8746;49.230;9.220;2023-07-22T08:14:58;99862.50;;;19.62;70.40
17260;BME280;8746;49.230;9.220;2023-07-22T08:17:23;99857.16;;;19.74;70.33
17260;BME280;8746;49.230;9.220;2023-07-22T08:19:49;99854.13;;;19.78;71.00
17260;BME280;8746;49.230;9.220;2023-07-22T08:22:14;99856.31;;;19.96;71.02
17260;BME280;8746;49.230;9.220;2023-07-22T08:24:39;99844.22;;;20.13;69.83
17260;BME280;8746;49.230;9.220;2023-07-22T08:27:05;99855.41;;;20.18;69.24
17260;BME280;8746;49.230;9.220;2023-07-22T08:29:30;99841.81;;;20.42;69.43
17260;BME280;8746;49.230;9.220;2023-07-22T08:31:56;99836.91;;;20.47;66.33
17260;BME280;8746;49.230;9.220;2023-07-22T08:34:21;99846.78;;;20.47;64.88
17260;BME280;8746;49.230;9.220;2023-07-22T08:36:47;99856.84;;;20.22;64.04
17260;BME280;8746;49.230;9.220;2023-07-22T08:39:12;99856.94;;;20.32;64.26
17260;BME280;8746;49.230;9.220;2023-07-22T08:41:37;99851.41;;;20.45;64.97
17260;BME280;8746;49.230;9.220;2023-07-22T08:44:04;99854.56;;;20.50;61.46
17260;BME280;8746;49.230;9.220;2023-07-22T08:46:33;99854.78;;;20.58;60.76
17260;BME280;8746;49.230;9.220;2023-07-22T08:49:01;99855.22;;;20.63;60.75
17260;BME280;8746;49.230;9.220;2023-07-22T08:51:29;99841.09;;;20.73;60.58
17260;BME280;8746;49.230;9.220;2023-07-22T08:53:57;99849.34;;;20.81;60.20
17260;BME280;8746;49.230;9.220;2023-07-22T08:56:24;99844.75;;;21.14;59.82
17260;BME280;8746;49.230;9.220;2023-07-22T08:58:51;99851.53;;;21.49;60.12
17260;BME280;8746;49.230;9.220;2023-07-22T09:01:17;99844.59;;;21.68;57.71
17260;BME280;8746;49.230;9.220;2023-07-22T09:03:43;99845.22;;;21.91;58.19
17260;BME280;8746;49.230;9.220;2023-07-22T09:06:09;99839.56;;;21.84;56.92
17260;BME280;8746;49.230;9.220;2023-07-22T09:08:35;99838.09;;;21.70;55.08
17260;BME280;8746;49.230;9.220;2023-07-22T09:11:01;99831.16;;;21.68;56.16
17260;BME280;8746;49.230;9.220;2023-07-22T09:13:26;99835.31;;;21.82;57.73
17260;BME280;8746;49.230;9.220;2023-07-22T09:15:53;99827.72;;;21.97;57.37
17260;BME280;8746;49.230;9.220;2023-07-22T09:18:21;99827.41;;;21.80;57.34
17260;BME280;8746;49.230;9.220;2023-07-22T09:20:47;99826.00;;;21.86;56.67
17260;BME280;8746;49.230;9.220;2023-07-22T09:23:13;99822.06;;;22.00;56.44
17260;BME280;8746;49.230;9.220;2023-07-22T09:25:39;99821.97;;;22.21;55.35
17260;BME280;8746;49.230;9.220;2023-07-22T09:28:04;99811.22;;;22.21;56.39
17260;BME280;8746;49.230;9.220;2023-07-22T09:30:31;99817.56;;;22.30;55.50
17260;BME280;8746;49.230;9.220;2023-07-22T09:32:59;99814.31;;;22.36;55.04
17260;BME280;8746;49.230;9.220;2023-07-22T09:35:30;99820.16;;;22.41;54.87
17260;BME280;8746;49.230;9.220;2023-07-22T09:37:56;99815.31;;;22.35;55.32
17260;BME280;8746;49.230;9.220;2023-07-22T09:40:26;99804.84;;;22.81;54.74
17260;BME280;8746;49.230;9.220;2023-07-22T09:42:56;99808.72;;;23.06;52.37
17260;BME280;8746;49.230;9.220;2023-07-22T09:45:24;99801.41;;;22.88;51.79
17260;BME280;8746;49.230;9.220;2023-07-22T09:47:51;99803.31;;;23.26;50.84
17260;BME280;8746;49.230;9.220;2023-07-22T09:50:18;99803.88;;;23.57;50.68
17260;BME280;8746;49.230;9.220;2023-07-22T09:52:55;99804.75;;;23.58;49.59
17260;BME280;8746;49.230;9.220;2023-07-22T09:55:22;99804.41;;;23.33;49.75
17260;BME280;8746;49.230;9.220;2023-07-22T09:57:56;99798.53;;;23.10;47.21
17260;BME280;8746;49.230;9.220;2023-07-22T10:00:24;99786.75;;;23.20;47.36
17260;BME280;8746;49.230;9.220;2023-07-22T10:02:51;99801.84;;;23.41;47.40
17260;BME280;8746;49.230;9.220;2023-07-22T10:05:18;99797.66;;;23.57;48.51
17260;BME280;8746;49.230;9.220;2023-07-22T10:07:52;99798.66;;;23.56;48.09
17260;BME280;8746;49.230;9.220;2023-07-22T10:10:23;99795.69;;;23.21;49.02
17260;BME280;8746;49.230;9.220;2023-07-22T10:12:49;99785.16;;;23.93;46.36
17260;BME280;8746;49.230;9.220;2023-07-22T10:15:16;99775.69;;;24.43;44.83
17260;BME280;8746;49.230;9.220;2023-07-22T10:17:43;99773.94;;;24.78;43.96
17260;BME280;8746;49.230;9.220;2023-07-22T10:20:10;99769.66;;;25.20;42.83
17260;BME280;8746;49.230;9.220;2023-07-22T10:22:44;99775.28;;;25.35;42.76
17260;BME280;8746;49.230;9.220;2023-07-22T10:25:18;99767.34;;;25.76;41.37
17260;BME280;8746;49.230;9.220;2023-07-22T10:27:44;99761.69;;;26.13;43.79
17260;BME280;8746;49.230;9.220;2023-07-22T10:30:12;99768.03;;;25.87;42.02
17260;BME280;8746;49.230;9.220;2023-07-22T10:32:40;99773.22;;;25.64;42.85
17260;BME280;8746;49.230;9.220;2023-07-22T10:35:11;99766.09;;;25.20;42.57
17260;BME280;8746;49.230;9.220;2023-07-22T10:37:39;99766.09;;;24.67;41.52
17260;BME280;8746;49.230;9.220;2023-07-22T10:40:28;99766.16;;;24.57;41.21
17260;BME280;8746;49.230;9.220;2023-07-22T10:43:04;99768.75;;;24.23;42.06
17260;BME280;8746;49.230;9.220;2023-07-22T10:45:31;99771.38;;;23.68;42.33
17260;BME280;8746;49.230;9.220;2023-07-22T10:48:08;99752.00;;;23.65;42.28
17260;BME280;8746;49.230;9.220;2023-07-22T10:53:32;99754.69;;;23.65;43.50
17260;BME280;8746;49.230;9.220;2023-07-22T11:01:34;99749.22;;;25.60;40.01
17260;BME280;8746;49.230;9.220;2023-07-22T11:06:29;99750.53;;;24.61;40.90
17260;BME280;8746;49.230;9.220;2023-07-22T11:08:55;99748.72;;;24.43;41.50
17260;BME280;8746;49.230;9.220;2023-07-22T11:11:20;99743.00;;;24.46;41.40
17260;BME280;8746;49.230;9.220;2023-07-22T11:13:46;99738.78;;;25.31;40.92
17260;BME280;8746;49.230;9.220;2023-07-22T11:16:11;99732.72;;;25.72;39.27
17260;BME280;8746;49.230;9.220;2023-07-22T11:18:40;99733.50;;;26.32;38.18
17260;BME280;8746;49.230;9.220;2023-07-22T11:21:10;99732.50;;;27.14;37.60
17260;BME280;8746;49.230;9.220;2023-07-22T11:23:36;99728.22;;;26.55;37.62
17260;BME280;8746;49.230;9.220;2023-07-22T11:26:03;99729.94;;;26.39;38.35
17260;BME280;8746;49.230;9.220;2023-07-22T11:28:30;99730.25;;;26.53;38.44
17260;BME280;8746;49.230;9.220;2023-07-22T11:30:55;99733.00;;;27.17;38.09
17260;BME280;8746;49.230;9.220;2023-07-22T11:33:21;99730.72;;;27.46;36.53
17260;BME280;8746;49.230;9.220;2023-07-22T11:35:46;99714.03;;;26.53;37.34
17260;BME280;8746;49.230;9.220;2023-07-22T11:38:12;99714.56;;;26.32;39.83
17260;BME280;8746;49.230;9.220;2023-07-22T11:40:37;99710.34;;;26.29;39.19
17260;BME280;8746;49.230;9.220;2023-07-22T11:43:03;99706.41;;;25.99;38.12
17260;BME280;8746;49.230;9.220;2023-07-22T11:45:28;99702.16;;;25.80;37.97
17260;BME280;8746;49.230;9.220;2023-07-22T11:47:55;99706.53;;;25.56;38.51
17260;BME280;8746;49.230;9.220;2023-07-22T11:50:31;99704.56;;;26.24;38.68
17260;BME280;8746;49.230;9.220;2023-07-22T11:52:57;99698.88;;;27.00;38.51
17260;BME280;8746;49.230;9.220;2023-07-22T11:55:23;99696.50;;;27.45;35.88
17260;BME280;8746;49.230;9.220;2023-07-22T11:57:55;99688.47;;;27.28;36.13
17260;BME280;8746;49.230;9.220;2023-07-22T12:00:21;99689.63;;;26.69;37.62
17260;BME280;8746;49.230;9.220;2023-07-22T12:02:47;99691.19;;;26.55;38.32
17260;BME280;8746;49.230;9.220;2023-07-22T12:05:20;99676.50;;;25.84;37.23
17260;BME280;8746;49.230;9.220;2023-07-22T12:07:46;99676.19;;;26.28;37.34
17260;BME280;8746;49.230;9.220;2023-07-22T12:10:12;99682.00;;;27.29;36.60
17260;BME280;8746;49.230;9.220;2023-07-22T12:12:43;99680.25;;;27.36;34.74
17260;BME280;8746;49.230;9.220;2023-07-22T12:15:14;99676.09;;;26.69;36.30
17260;BME280;8746;49.230;9.220;2023-07-22T12:20:10;99668.25;;;26.18;37.85
17260;BME280;8746;49.230;9.220;2023-07-22T12:22:36;99667.97;;;26.86;37.23
17260;BME280;8746;49.230;9.220;2023-07-22T12:25:01;99675.88;;;27.04;36.51
17260;BME280;8746;49.230;9.220;2023-07-22T12:27:26;99677.81;;;25.71;35.74
17260;BME280;8746;49.230;9.220;2023-07-22T12:29:51;99662.28;;;25.57;36.65
17260;BME280;8746;49.230;9.220;2023-07-22T12:32:17;99664.06;;;26.16;36.22
17260;BME280;8746;49.230;9.220;2023-07-22T12:34:42;99660.09;;;27.71;34.08
17260;BME280;8746;49.230;9.220;2023-07-22T12:37:07;99661.25;;;28.38;32.17
17260;BME280;8746;49.230;9.220;2023-07-22T12:39:33;99652.22;;;27.61;33.17
17260;BME280;8746;49.230;9.220;2023-07-22T12:41:58;99663.59;;;26.77;34.82
17260;BME280;8746;49.230;9.220;2023-07-22T12:44:23;99650.41;;;27.76;33.54
17260;BME280;8746;49.230;9.220;2023-07-22T12:46:49;99644.50;;;27.96;32.92
17260;BME280;8746;49.230;9.220;2023-07-22T12:49:14;99655.69;;;27.70;33.02
17260;BME280;8746;49.230;9.220;2023-07-22T12:51:39;99652.09;;;28.01;32.62
17260;BME280;8746;49.230;9.220;2023-07-22T12:54:04;99629.69;;;29.26;30.65
17260;BME280;8746;49.230;9.220;2023-07-22T12:56:30;99642.91;;;28.02;32.46
17260;BME280;8746;49.230;9.220;2023-07-22T12:58:55;99652.13;;;27.14;34.86
17260;BME280;8746;49.230;9.220;2023-07-22T13:01:21;99636.94;;;28.44;33.70
17260;BME280;8746;49.230;9.220;2023-07-22T13:03:46;99631.16;;;29.44;31.38
17260;BME280;8746;49.230;9.220;2023-07-22T13:06:11;99623.31;;;30.21;29.66
17260;BME280;8746;49.230;9.220;2023-07-22T13:08:37;99631.63;;;31.18;29.10
17260;BME280;8746;49.230;9.220;2023-07-22T13:11:02;99627.16;;;32.39;27.35
17260;BME280;8746;49.230;9.220;2023-07-22T13:13:28;99624.81;;;32.56;26.52